createdAt,value
2023-03-30T00:01:40.053Z,10.57
2023-03-30T00:04:11.593Z,9.97
2023-03-30T00:06:42.515Z,10.57
2023-03-30T00:09:10.053Z,9.60
2023-03-30T00:11:37.840Z,10.20
2023-03-30T00:14:05.379Z,11.10
2023-03-30T00:16:33.069Z,9.23
2023-03-30T00:19:00.680Z,10.60
2023-03-30T00:21:29.937Z,10.23
2023-03-30T00:23:57.470Z,11.03
2023-03-30T00:26:25.141Z,10.30
2023-03-30T00:28:52.703Z,10.53
2023-03-30T00:31:20.495Z,10.57
2023-03-30T00:33:48.189Z,10.73
2023-03-30T00:36:16.206Z,10.37
2023-03-30T00:38:48.378Z,10.63
2023-03-30T00:41:16.582Z,11.17
2023-03-30T00:43:57.986Z,10.50
2023-03-30T00:46:25.742Z,10.67
2023-03-30T00:48:57.603Z,11.27
2023-03-30T00:51:26.411Z,9.97
2023-03-30T00:53:57.637Z,11.43
2023-03-30T00:56:28.336Z,11.53
2023-03-30T00:58:56.119Z,11.73
2023-03-30T01:01:29.110Z,11.10
2023-03-30T01:03:59.355Z,12.07
2023-03-30T01:06:30.034Z,12.13
2023-03-30T01:08:59.304Z,11.97
2023-03-30T01:11:27.956Z,11.17
2023-03-30T01:13:59.252Z,11.70
2023-03-30T01:16:31.278Z,11.07
2023-03-30T01:19:06.130Z,11.43
2023-03-30T01:21:55.629Z,11.50
2023-03-30T01:24:53.319Z,10.80
2023-03-30T01:27:39.261Z,10.63
2023-03-30T01:30:22.828Z,10.97
2023-03-30T01:33:13.038Z,10.77
2023-03-30T01:36:13.741Z,10.37
2023-03-30T01:39:02.763Z,10.73
2023-03-30T01:41:35.695Z,11.33
2023-03-30T01:44:07.574Z,10.77
2023-03-30T01:46:37.844Z,10.63
2023-03-30T01:49:11.782Z,10.70
2023-03-30T01:51:43.650Z,10.60
2023-03-30T01:54:15.455Z,11.07
2023-03-30T01:56:45.609Z,10.77
2023-03-30T01:59:17.534Z,10.13
2023-03-30T02:01:50.193Z,11.60
2023-03-30T02:04:20.126Z,10.37
2023-03-30T02:06:49.791Z,11.50
2023-03-30T02:09:20.734Z,10.37
2023-03-30T02:11:50.446Z,10.27
2023-03-30T02:14:19.307Z,10.07
2023-03-30T02:16:48.378Z,10.77
2023-03-30T02:19:17.021Z,10.47
2023-03-30T02:21:44.813Z,9.77
2023-03-30T02:24:17.880Z,10.20
2023-03-30T02:26:49.075Z,10.10
2023-03-30T02:29:17.473Z,11.97
2023-03-30T02:31:47.092Z,10.23
2023-03-30T02:34:22.081Z,10.03
2023-03-30T02:37:06.091Z,10.60
2023-03-30T02:39:42.623Z,9.60
2023-03-30T02:42:27.728Z,10.53
2023-03-30T02:45:04.654Z,10.33
2023-03-30T02:47:36.484Z,10.67
2023-03-30T02:50:07.043Z,11.00
2023-03-30T02:52:42.979Z,10.60
2023-03-30T02:55:15.002Z,10.93
2023-03-30T02:57:51.089Z,10.63
2023-03-30T03:00:20.233Z,10.03
2023-03-30T03:02:52.460Z,10.53
2023-03-30T03:05:20.779Z,11.37
2023-03-30T03:07:49.191Z,10.57
2023-03-30T03:10:16.771Z,10.00
2023-03-30T03:12:46.922Z,10.17
2023-03-30T03:15:14.730Z,9.90
2023-03-30T03:17:45.253Z,9.67
2023-03-30T03:20:13.023Z,9.00
2023-03-30T03:22:40.631Z,9.80
2023-03-30T03:25:08.774Z,10.10
2023-03-30T03:27:36.460Z,9.30
2023-03-30T03:30:05.846Z,8.77
2023-03-30T03:32:33.403Z,9.43
2023-03-30T03:35:01.331Z,9.20
2023-03-30T03:37:28.881Z,10.43
2023-03-30T03:39:56.529Z,9.70
2023-03-30T03:42:24.047Z,10.70
2023-03-30T03:44:51.572Z,10.70
2023-03-30T03:47:20.805Z,9.23
2023-03-30T03:49:48.368Z,9.13
2023-03-30T03:52:15.897Z,9.87
2023-03-30T03:54:43.482Z,9.43
2023-03-30T03:57:11.053Z,9.73
2023-03-30T03:59:38.659Z,10.47
2023-03-30T04:02:06.669Z,9.57
2023-03-30T04:04:35.939Z,9.60
2023-03-30T04:07:03.534Z,10.07
2023-03-30T04:09:31.066Z,10.40
2023-03-30T04:11:58.592Z,10.33
2023-03-30T04:14:26.373Z,9.53
2023-03-30T04:16:58.071Z,8.93
2023-03-30T04:19:27.746Z,10.20
2023-03-30T04:21:58.868Z,9.77
2023-03-30T04:24:27.935Z,9.57
2023-03-30T04:26:57.971Z,9.60
2023-03-30T04:29:25.542Z,10.10
2023-03-30T04:31:53.290Z,11.23
2023-03-30T04:34:21.921Z,11.70
2023-03-30T04:36:49.578Z,11.17
2023-03-30T04:39:20.788Z,9.10
2023-03-30T04:41:54.478Z,9.73
2023-03-30T04:44:22.100Z,10.10
2023-03-30T04:46:49.629Z,10.00
2023-03-30T04:49:17.170Z,11.23
2023-03-30T04:51:44.781Z,11.03
2023-03-30T04:54:12.331Z,11.00
2023-03-30T04:56:41.544Z,11.97
2023-03-30T04:59:09.185Z,11.93
2023-03-30T05:01:36.751Z,11.50
2023-03-30T05:04:04.317Z,11.73
2023-03-30T05:06:31.910Z,12.17
2023-03-30T05:08:59.459Z,11.70
2023-03-30T05:11:27.312Z,11.57
2023-03-30T05:13:56.290Z,11.67
2023-03-30T05:16:23.873Z,10.93
2023-03-30T05:18:51.900Z,11.80
2023-03-30T05:21:19.474Z,10.70
2023-03-30T05:23:47.013Z,10.77
2023-03-30T05:26:14.618Z,11.03
2023-03-30T05:28:43.058Z,10.97
2023-03-30T05:31:11.988Z,12.47
2023-03-30T05:33:41.371Z,12.27
2023-03-30T05:36:11.605Z,11.83
2023-03-30T05:38:39.289Z,12.17
2023-03-30T05:41:07.717Z,10.93
2023-03-30T05:43:35.366Z,12.40
2023-03-30T05:46:03.494Z,11.70
2023-03-30T05:48:32.425Z,11.53
2023-03-30T05:51:02.159Z,11.00
2023-03-30T05:53:30.039Z,13.10
2023-03-30T05:55:57.594Z,13.70
2023-03-30T05:58:25.310Z,12.33
2023-03-30T06:00:54.132Z,12.40
2023-03-30T06:03:21.816Z,13.00
2023-03-30T06:05:50.918Z,12.10
2023-03-30T06:08:20.097Z,11.33
2023-03-30T06:10:53.989Z,11.63
2023-03-30T06:13:21.642Z,12.80
2023-03-30T06:15:49.571Z,12.17
2023-03-30T06:18:17.488Z,12.23
2023-03-30T06:20:47.617Z,11.83
2023-03-30T06:23:16.830Z,13.80
2023-03-30T06:25:47.260Z,13.43
2023-03-30T06:28:14.779Z,11.80
2023-03-30T06:30:42.735Z,11.57
2023-03-30T06:33:10.278Z,11.30
2023-03-30T06:35:37.888Z,13.20
2023-03-30T06:38:05.460Z,12.40
2023-03-30T06:40:34.317Z,11.00
2023-03-30T06:43:01.934Z,12.40
2023-03-30T06:45:29.529Z,12.10
2023-03-30T06:47:57.216Z,11.20
2023-03-30T06:50:24.843Z,11.30
2023-03-30T06:52:53.053Z,10.77
2023-03-30T06:55:21.795Z,12.17
2023-03-30T06:57:50.797Z,11.47
2023-03-30T07:00:19.166Z,11.57
2023-03-30T07:02:46.728Z,12.00
2023-03-30T07:05:15.794Z,14.50
2023-03-30T07:07:43.400Z,13.23
2023-03-30T07:10:12.115Z,12.43
2023-03-30T07:12:40.812Z,12.80
2023-03-30T07:15:10.704Z,11.97
2023-03-30T07:17:38.744Z,12.30
2023-03-30T07:20:08.252Z,12.87
2023-03-30T07:22:36.274Z,11.63
2023-03-30T07:25:04.596Z,13.13
2023-03-30T07:27:32.200Z,9.57
2023-03-30T07:30:10.270Z,10.73
2023-03-30T07:32:43.170Z,10.80
2023-03-30T07:35:10.977Z,11.67
2023-03-30T07:37:40.008Z,9.83
2023-03-30T07:40:10.071Z,9.83
2023-03-30T07:42:37.982Z,10.17
2023-03-30T07:45:06.202Z,9.00
2023-03-30T07:47:33.885Z,9.40
2023-03-30T07:50:02.838Z,10.70
2023-03-30T07:52:30.422Z,9.70
2023-03-30T07:54:57.991Z,9.17
2023-03-30T07:57:26.181Z,9.60
2023-03-30T07:59:53.807Z,9.07
2023-03-30T08:02:21.345Z,8.93
2023-03-30T08:04:49.124Z,8.67
2023-03-30T08:07:18.131Z,8.63
2023-03-30T08:09:46.774Z,8.43
2023-03-30T08:12:14.517Z,8.97
2023-03-30T08:14:42.106Z,9.20
2023-03-30T08:17:09.633Z,7.43
2023-03-30T08:19:37.266Z,8.23
2023-03-30T08:22:04.861Z,8.37
2023-03-30T08:24:34.839Z,8.47
2023-03-30T08:27:02.610Z,8.83
2023-03-30T08:29:31.501Z,9.63
2023-03-30T08:31:59.086Z,12.80
2023-03-30T08:34:27.494Z,12.03
2023-03-30T08:36:55.426Z,8.67
2023-03-30T08:39:23.110Z,8.97
2023-03-30T08:42:01.090Z,8.47
2023-03-30T08:44:33.850Z,9.03
2023-03-30T08:47:02.554Z,9.30
2023-03-30T08:49:31.347Z,9.20
2023-03-30T08:52:02.505Z,10.30
2023-03-30T08:54:31.664Z,9.63
2023-03-30T08:57:08.841Z,11.33
2023-03-30T08:59:42.211Z,10.23
2023-03-30T09:02:16.417Z,10.73
2023-03-30T09:04:57.156Z,9.20
2023-03-30T09:07:26.494Z,10.07
2023-03-30T09:09:55.080Z,10.20
2023-03-30T09:12:31.601Z,9.23
2023-03-30T09:15:03.266Z,10.40
2023-03-30T09:17:33.473Z,9.07
2023-03-30T09:20:06.948Z,9.10
2023-03-30T09:22:39.909Z,9.30
2023-03-30T09:25:15.374Z,10.60
2023-03-30T09:27:48.288Z,10.00
2023-03-30T09:30:19.977Z,9.37
2023-03-30T09:32:54.293Z,9.80
2023-03-30T09:35:25.057Z,10.83
2023-03-30T09:37:52.697Z,9.83
2023-03-30T09:40:28.151Z,10.20
2023-03-30T09:43:01.684Z,9.10
2023-03-30T09:45:33.276Z,10.50
2023-03-30T09:48:05.432Z,10.47
2023-03-30T09:50:39.006Z,11.80
2023-03-30T09:53:10.029Z,11.03
2023-03-30T09:55:38.498Z,11.00
2023-03-30T09:58:14.469Z,12.23
2023-03-30T10:00:42.065Z,11.57
2023-03-30T10:03:20.884Z,11.87
2023-03-30T10:06:02.703Z,12.70
2023-03-30T10:08:30.771Z,13.87
2023-03-30T10:11:00.638Z,12.97
2023-03-30T10:13:33.313Z,12.33
2023-03-30T10:16:06.470Z,11.73
2023-03-30T10:18:40.023Z,12.50
2023-03-30T10:21:10.965Z,11.70
2023-03-30T10:23:42.027Z,12.00
2023-03-30T10:26:15.433Z,13.07
2023-03-30T10:28:52.919Z,13.87
2023-03-30T10:31:20.780Z,14.03
2023-03-30T10:33:49.828Z,12.93
2023-03-30T10:36:19.944Z,12.67
2023-03-30T10:38:47.950Z,12.97
2023-03-30T10:41:17.973Z,12.80
2023-03-30T10:43:47.308Z,14.17
2023-03-30T10:46:20.148Z,14.67
2023-03-30T10:49:05.405Z,13.13
2023-03-30T10:51:39.949Z,11.93
2023-03-30T10:54:12.129Z,12.53
2023-03-30T10:56:44.439Z,14.23
2023-03-30T10:59:20.706Z,14.97
2023-03-30T11:01:56.012Z,14.60
2023-03-30T11:04:29.447Z,14.83
2023-03-30T11:06:58.625Z,15.27
2023-03-30T11:09:32.788Z,14.80
2023-03-30T11:12:02.903Z,12.87
2023-03-30T11:14:38.296Z,13.00
2023-03-30T11:17:09.056Z,10.97
2023-03-30T11:19:39.513Z,12.73
2023-03-30T11:22:15.971Z,13.17
2023-03-30T11:24:45.964Z,14.00
2023-03-30T11:27:18.297Z,13.37
2023-03-30T11:29:49.703Z,14.57
2023-03-30T11:32:25.947Z,14.47
2023-03-30T11:35:02.487Z,14.30
2023-03-30T11:37:34.464Z,14.03
2023-03-30T11:40:10.112Z,14.80
2023-03-30T11:42:38.054Z,15.27
2023-03-30T11:45:23.793Z,13.90
2023-03-30T11:48:04.405Z,14.30
2023-03-30T11:50:39.790Z,13.97
2023-03-30T11:53:15.283Z,14.07
2023-03-30T11:55:50.015Z,15.50
2023-03-30T11:58:25.005Z,13.43
2023-03-30T12:01:03.687Z,15.47
2023-03-30T12:03:37.767Z,15.07
2023-03-30T12:06:16.522Z,15.70
2023-03-30T12:08:52.292Z,14.80
2023-03-30T12:11:24.577Z,16.07
2023-03-30T12:13:52.588Z,15.90
2023-03-30T12:16:28.168Z,15.07
2023-03-30T12:19:06.658Z,16.40
2023-03-30T12:21:38.015Z,15.43
2023-03-30T12:24:13.720Z,13.83
2023-03-30T12:26:42.516Z,13.23
2023-03-30T12:29:52.587Z,13.87
2023-03-30T12:32:08.420Z,13.40
2023-03-30T12:34:37.691Z,13.97
2023-03-30T12:37:13.057Z,13.30
2023-03-30T12:39:44.913Z,12.30
2023-03-30T12:42:26.265Z,11.97
2023-03-30T12:45:08.337Z,13.30
2023-03-30T12:47:52.602Z,13.03
2023-03-30T12:50:30.240Z,13.00
2023-03-30T12:53:12.175Z,13.63
2023-03-30T12:55:45.493Z,12.17
2023-03-30T12:58:28.442Z,12.00
2023-03-30T13:01:25.742Z,13.17
2023-03-30T13:03:55.463Z,13.73
2023-03-30T13:06:26.980Z,13.27
2023-03-30T13:08:56.074Z,13.33
2023-03-30T13:11:24.408Z,15.73
2023-03-30T13:13:55.037Z,14.77
2023-03-30T13:16:48.934Z,12.53
2023-03-30T13:19:26.707Z,11.70
2023-03-30T13:21:58.797Z,10.77
2023-03-30T13:24:33.565Z,9.83
2023-03-30T13:27:13.343Z,9.83
2023-03-30T13:29:41.336Z,9.50
2023-03-30T13:32:16.631Z,10.60
2023-03-30T13:35:06.728Z,10.00
2023-03-30T13:37:56.788Z,8.73
2023-03-30T13:40:39.508Z,9.30
2023-03-30T13:43:18.301Z,7.73
2023-03-30T13:45:50.816Z,9.00
2023-03-30T13:48:30.906Z,7.03
2023-03-30T13:51:01.839Z,7.13
2023-03-30T13:53:33.549Z,6.30
2023-03-30T13:56:01.104Z,5.60
2023-03-30T13:58:30.908Z,4.00
2023-03-30T14:01:01.674Z,3.93
2023-03-30T14:03:37.439Z,3.40
2023-03-30T14:06:09.561Z,3.43
2023-03-30T14:08:40.785Z,4.03
2023-03-30T14:11:17.043Z,3.50
2023-03-30T14:13:45.970Z,3.57
2023-03-30T14:16:20.064Z,3.60
2023-03-30T14:18:47.869Z,3.57
2023-03-30T14:21:18.772Z,3.97
2023-03-30T14:23:56.275Z,4.03
2023-03-30T14:26:25.149Z,3.53
2023-03-30T14:28:55.622Z,4.30
2023-03-30T14:31:23.451Z,3.57
2023-03-30T14:33:51.038Z,3.47
2023-03-30T14:36:21.437Z,3.90
2023-03-30T14:38:51.376Z,3.97
2023-03-30T14:41:22.805Z,3.37
2023-03-30T14:43:54.892Z,4.10
2023-03-30T14:46:23.897Z,3.37
2023-03-30T14:48:51.468Z,4.17
2023-03-30T14:51:25.993Z,3.37
2023-03-30T14:53:54.620Z,3.60
2023-03-30T14:56:23.382Z,3.60
2023-03-30T14:58:52.225Z,3.20
2023-03-30T15:01:24.059Z,3.43
2023-03-30T15:03:51.777Z,3.90
2023-03-30T15:06:24.515Z,3.90
2023-03-30T15:08:52.744Z,4.00
2023-03-30T15:11:23.221Z,4.83
2023-03-30T15:13:53.150Z,3.97
2023-03-30T15:16:24.225Z,4.10
2023-03-30T15:18:52.489Z,4.00
2023-03-30T15:21:20.614Z,4.03
2023-03-30T15:23:51.201Z,3.50
2023-03-30T15:26:19.654Z,4.10
2023-03-30T15:28:50.122Z,4.17
2023-03-30T15:31:19.671Z,3.93
2023-03-30T15:33:50.453Z,3.70
2023-03-30T15:36:20.617Z,4.25
2023-03-30T15:38:51.617Z,4.53
2023-03-30T15:41:27.676Z,4.07
2023-03-30T15:43:59.437Z,3.60
2023-03-30T15:46:28.821Z,3.70
2023-03-30T15:48:59.367Z,3.50
2023-03-30T15:51:29.818Z,3.77
2023-03-30T15:54:02.544Z,3.90
2023-03-30T15:56:32.964Z,3.90
2023-03-30T15:59:01.569Z,3.53
2023-03-30T16:01:42.563Z,4.23
2023-03-30T16:04:11.992Z,4.30
2023-03-30T16:06:42.482Z,3.87
2023-03-30T16:09:12.106Z,3.53
2023-03-30T16:11:40.032Z,4.50
2023-03-30T16:14:08.533Z,3.93
2023-03-30T16:16:36.217Z,4.07
2023-03-30T16:19:03.796Z,4.00
2023-03-30T16:21:31.492Z,4.23
2023-03-30T16:23:59.013Z,3.80
2023-03-30T16:26:27.914Z,4.07
2023-03-30T16:28:55.829Z,4.57
2023-03-30T16:31:24.240Z,4.33
2023-03-30T16:33:52.229Z,4.33
2023-03-30T16:36:22.094Z,4.47
2023-03-30T16:38:50.027Z,4.33
2023-03-30T16:41:20.529Z,4.27
2023-03-30T16:43:49.967Z,4.13
2023-03-30T16:46:19.111Z,5.00
2023-03-30T16:48:47.233Z,4.37
2023-03-30T16:51:16.036Z,4.33
2023-03-30T16:53:43.790Z,4.50
2023-03-30T16:56:15.164Z,4.30
2023-03-30T16:58:42.804Z,4.10
2023-03-30T17:01:13.201Z,4.07
2023-03-30T17:03:41.295Z,3.87
2023-03-30T17:06:09.208Z,4.50
2023-03-30T17:08:36.874Z,4.20
2023-03-30T17:11:05.056Z,4.10
2023-03-30T17:13:33.020Z,3.20
2023-03-30T17:16:02.794Z,3.10
2023-03-30T17:18:31.963Z,2.80
2023-03-30T17:21:00.860Z,2.80
2023-03-30T17:23:29.983Z,2.43
2023-03-30T17:25:59.006Z,2.10
2023-03-30T17:28:28.652Z,2.63
2023-03-30T17:30:57.887Z,1.90
2023-03-30T17:33:26.284Z,2.33
2023-03-30T17:35:57.849Z,3.10
2023-03-30T17:38:25.769Z,2.27
2023-03-30T17:40:53.364Z,2.10
2023-03-30T17:43:21.301Z,2.20
2023-03-30T17:45:49.043Z,2.20
2023-03-30T17:48:18.447Z,2.67
2023-03-30T17:50:47.798Z,2.00
2023-03-30T17:53:17.789Z,2.00
2023-03-30T17:55:46.214Z,2.20
2023-03-30T17:58:18.093Z,2.30
2023-03-30T18:00:47.126Z,1.93
2023-03-30T18:03:14.853Z,1.73
2023-03-30T18:05:43.079Z,2.47
2023-03-30T18:08:14.622Z,2.07
2023-03-30T18:10:44.902Z,2.50
2023-03-30T18:13:12.501Z,2.60
2023-03-30T18:15:40.046Z,2.10
2023-03-30T18:18:07.607Z,2.80
2023-03-30T18:20:37.138Z,2.10
2023-03-30T18:23:04.680Z,2.50
2023-03-30T18:25:33.070Z,1.93
2023-03-30T18:28:02.314Z,1.80
2023-03-30T18:30:31.504Z,2.20
2023-03-30T18:32:59.498Z,2.43
2023-03-30T18:35:28.710Z,2.77
2023-03-30T18:37:56.528Z,5.27
2023-03-30T18:40:26.583Z,3.40
2023-03-30T18:42:54.813Z,3.07
2023-03-30T18:45:26.828Z,2.83
2023-03-30T18:47:54.826Z,2.90
2023-03-30T18:50:24.567Z,2.90
2023-03-30T18:52:52.301Z,2.93
2023-03-30T18:55:19.905Z,3.17
2023-03-30T18:57:47.469Z,3.83
2023-03-30T19:00:26.242Z,2.70
2023-03-30T19:02:55.168Z,3.20
2023-03-30T19:05:24.056Z,3.00
2023-03-30T19:07:51.600Z,2.87
2023-03-30T19:10:20.868Z,2.20
2023-03-30T19:12:52.861Z,2.37
2023-03-30T19:15:25.298Z,2.70
2023-03-30T19:17:53.183Z,2.50
2023-03-30T19:20:22.683Z,3.30
2023-03-30T19:22:50.544Z,2.67
2023-03-30T19:25:19.995Z,3.03
2023-03-30T19:27:59.676Z,2.93
2023-03-30T19:30:33.016Z,3.57
2023-03-30T19:33:03.648Z,4.00
2023-03-30T19:35:31.785Z,4.13
2023-03-30T19:37:59.729Z,4.00
2023-03-30T19:40:27.662Z,3.70
2023-03-30T19:42:55.343Z,3.50
2023-03-30T19:45:23.754Z,3.20
2023-03-30T19:47:53.159Z,3.50
2023-03-30T19:50:24.824Z,3.00
2023-03-30T19:52:54.361Z,2.97
2023-03-30T19:55:22.548Z,3.70
2023-03-30T19:57:50.180Z,3.57
2023-03-30T20:00:18.857Z,3.73
2023-03-30T20:02:48.930Z,3.30
2023-03-30T20:05:18.485Z,2.73
2023-03-30T20:07:47.154Z,2.70
2023-03-30T20:10:16.689Z,3.60
2023-03-30T20:12:44.254Z,3.63
2023-03-30T20:15:12.469Z,3.53
2023-03-30T20:17:40.562Z,3.77
2023-03-30T20:20:12.595Z,2.80
2023-03-30T20:22:42.840Z,4.13
2023-03-30T20:25:12.300Z,7.30
2023-03-30T20:27:40.212Z,4.77
2023-03-30T20:30:09.174Z,2.83
2023-03-30T20:32:36.773Z,2.67
2023-03-30T20:35:05.191Z,3.00
2023-03-30T20:37:32.718Z,3.00
2023-03-30T20:40:09.529Z,2.57
2023-03-30T20:42:39.477Z,2.47
2023-03-30T20:45:08.842Z,2.87
2023-03-30T20:47:36.417Z,3.27
2023-03-30T20:50:04.704Z,2.97
2023-03-30T20:52:32.268Z,3.20
2023-03-30T20:55:01.399Z,2.90
2023-03-30T20:57:29.084Z,2.63
2023-03-30T20:59:56.649Z,2.60
2023-03-30T21:02:24.206Z,3.80
2023-03-30T21:04:52.971Z,3.20
2023-03-30T21:07:20.565Z,3.27
2023-03-30T21:09:48.065Z,3.53
2023-03-30T21:12:17.090Z,4.10
2023-03-30T21:14:45.863Z,4.63
2023-03-30T21:17:13.854Z,6.60
2023-03-30T21:19:41.430Z,5.63
2023-03-30T21:22:09.086Z,4.27
2023-03-30T21:24:36.599Z,3.13
2023-03-30T21:27:04.253Z,4.33
2023-03-30T21:29:33.318Z,4.20
2023-03-30T21:32:01.571Z,4.23
2023-03-30T21:34:29.118Z,4.20
2023-03-30T21:36:57.208Z,4.17
2023-03-30T21:39:25.123Z,4.00
2023-03-30T21:41:52.814Z,4.00
2023-03-30T21:44:20.887Z,3.20
2023-03-30T21:46:49.817Z,3.63
2023-03-30T21:49:17.438Z,3.23
2023-03-30T21:51:44.979Z,6.17
2023-03-30T21:54:13.950Z,4.70
2023-03-30T21:56:41.576Z,3.93
2023-03-30T21:59:09.721Z,4.13
2023-03-30T22:01:38.732Z,3.70
2023-03-30T22:04:07.792Z,3.70
2023-03-30T22:06:35.477Z,3.60
2023-03-30T22:09:03.055Z,3.83
2023-03-30T22:11:30.986Z,4.23
2023-03-30T22:13:58.490Z,3.20
2023-03-30T22:16:28.265Z,5.37
2023-03-30T22:18:56.039Z,7.03
2023-03-30T22:21:29.171Z,3.70
2023-03-30T22:23:56.768Z,3.33
2023-03-30T22:26:24.529Z,3.40
2023-03-30T22:28:52.136Z,3.50
2023-03-30T22:31:19.715Z,3.57
2023-03-30T22:33:47.931Z,3.10
2023-03-30T22:36:18.807Z,3.87
2023-03-30T22:38:48.124Z,3.40
2023-03-30T22:41:15.999Z,3.40
2023-03-30T22:43:43.552Z,3.37
2023-03-30T22:46:11.790Z,3.30
2023-03-30T22:48:41.384Z,3.03
2023-03-30T22:51:09.184Z,3.13
2023-03-30T22:53:38.519Z,3.10
2023-03-30T22:56:08.552Z,3.93
2023-03-30T22:58:36.341Z,3.33
2023-03-30T23:01:06.857Z,3.70
2023-03-30T23:03:34.573Z,3.40
2023-03-30T23:06:02.324Z,4.03
2023-03-30T23:08:30.473Z,3.80
2023-03-30T23:11:03.886Z,3.93
2023-03-30T23:13:33.346Z,4.30
2023-03-30T23:16:01.555Z,4.23
2023-03-30T23:18:29.138Z,4.57
2023-03-30T23:20:57.983Z,4.37
2023-03-30T23:23:25.709Z,4.43
2023-03-30T23:25:53.381Z,4.80
2023-03-30T23:28:20.936Z,5.50
2023-03-30T23:30:49.829Z,7.47
2023-03-30T23:33:17.422Z,5.80
2023-03-30T23:35:49.771Z,5.50
2023-03-30T23:38:17.501Z,5.57
2023-03-30T23:40:45.033Z,5.70
2023-03-30T23:43:12.577Z,5.17
2023-03-30T23:45:40.735Z,5.90
2023-03-30T23:48:09.860Z,5.67
2023-03-30T23:50:37.756Z,5.40
2023-03-30T23:53:07.092Z,6.57
2023-03-30T23:55:34.670Z,5.30
2023-03-30T23:58:02.302Z,5.23
